MTV weather

Blue Ridge Airport
Martinsville, Virginia, United States

Public forecast

Using degrees Fahrenheit for public forecast. Weather courtesy of forecast.io.

METAR (pilot weather report)

Retrieved 2019/09/19 12:41 UTC (0 seconds ago):

KMTV 191241Z AUTO 00000KT 10SM SCT055 16/16 A3035 RMK AO2

TAF (pilot weather forecast)

Closest forecast is Smith Reynolds Airport, 31.4 nm (58.2 km) SSW. Retrieved 2019/09/19 12:22 UTC (0 seconds ago):

TAF KINT 191120Z 1912/2012 06006KT P6SM BKN060